sensor_id;sensor_type;location;lat;lon;timestamp;P1;durP1;ratioP1;P2;durP2;ratioP2
8331;SDS011;4203;48.144;14.118;2023-03-01T00:02:17;22.50;;;14.93;;
8331;SDS011;4203;48.144;14.118;2023-03-01T00:04:44;22.27;;;15.03;;
8331;SDS011;4203;48.144;14.118;2023-03-01T00:07:11;20.90;;;15.13;;
8331;SDS011;4203;48.144;14.118;2023-03-01T00:09:38;22.47;;;15.60;;
8331;SDS011;4203;48.144;14.118;2023-03-01T00:12:06;22.67;;;15.33;;
8331;SDS011;4203;48.144;14.118;2023-03-01T00:14:33;21.00;;;14.97;;
8331;SDS011;4203;48.144;14.118;2023-03-01T00:17:03;21.13;;;13.90;;
8331;SDS011;4203;48.144;14.118;2023-03-01T00:19:30;25.10;;;14.93;;
8331;SDS011;4203;48.144;14.118;2023-03-01T00:21:57;23.80;;;15.33;;
8331;SDS011;4203;48.144;14.118;2023-03-01T00:24:25;28.60;;;16.20;;
8331;SDS011;4203;48.144;14.118;2023-03-01T00:26:52;26.57;;;16.17;;
8331;SDS011;4203;48.144;14.118;2023-03-01T00:29:21;24.50;;;14.83;;
8331;SDS011;4203;48.144;14.118;2023-03-01T00:31:48;23.43;;;15.33;;
8331;SDS011;4203;48.144;14.118;2023-03-01T00:34:17;21.47;;;14.40;;
8331;SDS011;4203;48.144;14.118;2023-03-01T00:36:44;22.43;;;15.20;;
8331;SDS011;4203;48.144;14.118;2023-03-01T00:39:12;23.20;;;15.37;;
8331;SDS011;4203;48.144;14.118;2023-03-01T00:41:41;26.17;;;15.00;;
8331;SDS011;4203;48.144;14.118;2023-03-01T00:44:08;22.00;;;13.73;;
8331;SDS011;4203;48.144;14.118;2023-03-01T00:46:36;21.37;;;13.77;;
8331;SDS011;4203;48.144;14.118;2023-03-01T00:49:03;22.30;;;15.10;;
8331;SDS011;4203;48.144;14.118;2023-03-01T00:51:32;20.40;;;14.17;;
8331;SDS011;4203;48.144;14.118;2023-03-01T00:54:01;20.93;;;14.83;;
8331;SDS011;4203;48.144;14.118;2023-03-01T00:56:29;24.17;;;15.37;;
8331;SDS011;4203;48.144;14.118;2023-03-01T00:58:57;22.83;;;15.63;;
8331;SDS011;4203;48.144;14.118;2023-03-01T01:01:25;22.50;;;14.73;;
8331;SDS011;4203;48.144;14.118;2023-03-01T01:03:56;24.57;;;14.57;;
8331;SDS011;4203;48.144;14.118;2023-03-01T01:06:25;20.53;;;14.50;;
8331;SDS011;4203;48.144;14.118;2023-03-01T01:08:55;23.90;;;15.50;;
8331;SDS011;4203;48.144;14.118;2023-03-01T01:11:24;22.13;;;15.37;;
8331;SDS011;4203;48.144;14.118;2023-03-01T01:13:53;24.07;;;15.30;;
8331;SDS011;4203;48.144;14.118;2023-03-01T01:16:22;25.27;;;15.63;;
8331;SDS011;4203;48.144;14.118;2023-03-01T01:18:50;21.27;;;14.13;;
8331;SDS011;4203;48.144;14.118;2023-03-01T01:21:18;21.67;;;14.83;;
8331;SDS011;4203;48.144;14.118;2023-03-01T01:23:46;22.77;;;15.43;;
8331;SDS011;4203;48.144;14.118;2023-03-01T01:26:16;25.90;;;15.17;;
8331;SDS011;4203;48.144;14.118;2023-03-01T01:28:44;22.10;;;14.37;;
8331;SDS011;4203;48.144;14.118;2023-03-01T01:31:12;25.53;;;15.10;;
8331;SDS011;4203;48.144;14.118;2023-03-01T01:33:39;20.70;;;14.53;;
8331;SDS011;4203;48.144;14.118;2023-03-01T01:36:07;23.90;;;14.37;;
8331;SDS011;4203;48.144;14.118;2023-03-01T01:38:34;23.50;;;14.67;;
8331;SDS011;4203;48.144;14.118;2023-03-01T01:41:02;23.77;;;15.80;;
8331;SDS011;4203;48.144;14.118;2023-03-01T01:43:33;24.53;;;15.93;;
8331;SDS011;4203;48.144;14.118;2023-03-01T01:46:01;23.67;;;15.40;;
8331;SDS011;4203;48.144;14.118;2023-03-01T01:48:32;22.03;;;15.73;;
8331;SDS011;4203;48.144;14.118;2023-03-01T01:51:07;24.90;;;16.07;;
8331;SDS011;4203;48.144;14.118;2023-03-01T01:53:37;25.77;;;16.23;;
8331;SDS011;4203;48.144;14.118;2023-03-01T01:56:06;23.87;;;14.77;;
8331;SDS011;4203;48.144;14.118;2023-03-01T01:58:36;22.50;;;15.27;;
8331;SDS011;4203;48.144;14.118;2023-03-01T02:01:04;26.87;;;15.37;;
8331;SDS011;4203;48.144;14.118;2023-03-01T02:03:32;26.07;;;15.37;;
8331;SDS011;4203;48.144;14.118;2023-03-01T02:06:03;32.30;;;15.83;;
8331;SDS011;4203;48.144;14.118;2023-03-01T02:08:35;26.47;;;16.37;;
8331;SDS011;4203;48.144;14.118;2023-03-01T02:11:04;23.13;;;15.77;;
8331;SDS011;4203;48.144;14.118;2023-03-01T02:13:32;24.47;;;15.37;;
8331;SDS011;4203;48.144;14.118;2023-03-01T02:16:04;28.87;;;17.33;;
8331;SDS011;4203;48.144;14.118;2023-03-01T02:18:34;26.67;;;16.40;;
8331;SDS011;4203;48.144;14.118;2023-03-01T02:21:05;25.90;;;16.60;;
8331;SDS011;4203;48.144;14.118;2023-03-01T02:23:41;25.13;;;16.30;;
8331;SDS011;4203;48.144;14.118;2023-03-01T02:26:11;25.93;;;16.83;;
8331;SDS011;4203;48.144;14.118;2023-03-01T02:28:46;26.57;;;15.57;;
8331;SDS011;4203;48.144;14.118;2023-03-01T02:31:14;24.43;;;15.50;;
8331;SDS011;4203;48.144;14.118;2023-03-01T02:34:03;27.50;;;15.73;;
8331;SDS011;4203;48.144;14.118;2023-03-01T02:36:32;22.90;;;15.37;;
8331;SDS011;4203;48.144;14.118;2023-03-01T02:39:03;25.13;;;15.93;;
8331;SDS011;4203;48.144;14.118;2023-03-01T02:41:34;25.17;;;17.07;;
8331;SDS011;4203;48.144;14.118;2023-03-01T02:44:05;28.23;;;17.43;;
8331;SDS011;4203;48.144;14.118;2023-03-01T02:46:33;29.43;;;17.20;;
8331;SDS011;4203;48.144;14.118;2023-03-01T02:49:16;29.00;;;17.17;;
8331;SDS011;4203;48.144;14.118;2023-03-01T02:51:50;27.50;;;17.33;;
8331;SDS011;4203;48.144;14.118;2023-03-01T02:54:28;26.77;;;16.20;;
8331;SDS011;4203;48.144;14.118;2023-03-01T02:57:00;26.73;;;17.77;;
8331;SDS011;4203;48.144;14.118;2023-03-01T02:59:30;28.30;;;16.30;;
8331;SDS011;4203;48.144;14.118;2023-03-01T03:02:00;29.87;;;16.63;;
8331;SDS011;4203;48.144;14.118;2023-03-01T03:04:27;25.20;;;16.13;;
8331;SDS011;4203;48.144;14.118;2023-03-01T03:06:54;28.37;;;17.83;;
8331;SDS011;4203;48.144;14.118;2023-03-01T03:09:21;28.17;;;17.47;;
8331;SDS011;4203;48.144;14.118;2023-03-01T03:11:49;29.97;;;18.37;;
8331;SDS011;4203;48.144;14.118;2023-03-01T03:14:16;31.50;;;17.77;;
8331;SDS011;4203;48.144;14.118;2023-03-01T03:16:46;26.77;;;17.13;;
8331;SDS011;4203;48.144;14.118;2023-03-01T03:19:15;29.73;;;17.77;;
8331;SDS011;4203;48.144;14.118;2023-03-01T03:21:42;29.37;;;18.30;;
8331;SDS011;4203;48.144;14.118;2023-03-01T03:24:10;36.90;;;18.10;;
8331;SDS011;4203;48.144;14.118;2023-03-01T03:26:37;31.00;;;18.37;;
8331;SDS011;4203;48.144;14.118;2023-03-01T03:29:04;27.07;;;17.73;;
8331;SDS011;4203;48.144;14.118;2023-03-01T03:31:31;29.67;;;18.20;;
8331;SDS011;4203;48.144;14.118;2023-03-01T03:34:00;31.93;;;20.30;;
8331;SDS011;4203;48.144;14.118;2023-03-01T03:36:27;31.13;;;18.90;;
8331;SDS011;4203;48.144;14.118;2023-03-01T03:38:54;31.50;;;18.50;;
8331;SDS011;4203;48.144;14.118;2023-03-01T03:41:21;32.40;;;18.00;;
8331;SDS011;4203;48.144;14.118;2023-03-01T03:43:48;29.90;;;18.37;;
8331;SDS011;4203;48.144;14.118;2023-03-01T03:46:15;31.20;;;18.70;;
8331;SDS011;4203;48.144;14.118;2023-03-01T03:48:43;31.67;;;19.13;;
8331;SDS011;4203;48.144;14.118;2023-03-01T03:51:13;33.47;;;18.40;;
8331;SDS011;4203;48.144;14.118;2023-03-01T03:53:41;31.77;;;18.30;;
8331;SDS011;4203;48.144;14.118;2023-03-01T03:56:09;33.03;;;19.03;;
8331;SDS011;4203;48.144;14.118;2023-03-01T03:58:37;30.87;;;17.87;;
8331;SDS011;4203;48.144;14.118;2023-03-01T04:01:04;31.27;;;18.47;;
8331;SDS011;4203;48.144;14.118;2023-03-01T04:03:32;31.60;;;18.63;;
8331;SDS011;4203;48.144;14.118;2023-03-01T04:06:00;30.23;;;18.33;;
8331;SDS011;4203;48.144;14.118;2023-03-01T04:08:30;29.37;;;19.17;;
8331;SDS011;4203;48.144;14.118;2023-03-01T04:10:58;29.07;;;18.23;;
8331;SDS011;4203;48.144;14.118;2023-03-01T04:13:47;33.83;;;19.60;;
8331;SDS011;4203;48.144;14.118;2023-03-01T04:16:14;27.70;;;18.10;;
8331;SDS011;4203;48.144;14.118;2023-03-01T04:18:43;33.37;;;19.87;;
8331;SDS011;4203;48.144;14.118;2023-03-01T04:21:10;33.17;;;20.63;;
8331;SDS011;4203;48.144;14.118;2023-03-01T04:23:39;30.87;;;19.13;;
8331;SDS011;4203;48.144;14.118;2023-03-01T04:26:07;30.30;;;18.60;;
8331;SDS011;4203;48.144;14.118;2023-03-01T04:28:34;37.67;;;21.30;;
8331;SDS011;4203;48.144;14.118;2023-03-01T04:31:04;34.03;;;20.13;;
8331;SDS011;4203;48.144;14.118;2023-03-01T04:33:38;33.97;;;21.13;;
8331;SDS011;4203;48.144;14.118;2023-03-01T04:36:07;33.80;;;20.20;;
8331;SDS011;4203;48.144;14.118;2023-03-01T04:38:35;33.50;;;19.23;;
8331;SDS011;4203;48.144;14.118;2023-03-01T04:41:05;37.70;;;21.37;;
8331;SDS011;4203;48.144;14.118;2023-03-01T04:43:33;33.57;;;20.23;;
8331;SDS011;4203;48.144;14.118;2023-03-01T04:46:01;37.80;;;20.77;;
8331;SDS011;4203;48.144;14.118;2023-03-01T04:48:29;38.73;;;21.00;;
8331;SDS011;4203;48.144;14.118;2023-03-01T04:50:57;37.27;;;21.47;;
8331;SDS011;4203;48.144;14.118;2023-03-01T04:53:25;33.13;;;20.70;;
8331;SDS011;4203;48.144;14.118;2023-03-01T04:55:53;43.13;;;22.37;;
8331;SDS011;4203;48.144;14.118;2023-03-01T04:58:23;38.77;;;21.93;;
8331;SDS011;4203;48.144;14.118;2023-03-01T05:00:51;36.67;;;21.77;;
8331;SDS011;4203;48.144;14.118;2023-03-01T05:03:19;38.33;;;22.47;;
8331;SDS011;4203;48.144;14.118;2023-03-01T05:05:47;40.17;;;22.13;;
8331;SDS011;4203;48.144;14.118;2023-03-01T05:08:16;40.77;;;23.17;;
8331;SDS011;4203;48.144;14.118;2023-03-01T05:10:44;38.23;;;21.63;;
8331;SDS011;4203;48.144;14.118;2023-03-01T05:13:12;44.57;;;22.07;;
8331;SDS011;4203;48.144;14.118;2023-03-01T05:15:47;39.27;;;25.40;;
8331;SDS011;4203;48.144;14.118;2023-03-01T05:18:15;36.73;;;21.63;;
8331;SDS011;4203;48.144;14.118;2023-03-01T05:20:42;38.73;;;22.50;;
8331;SDS011;4203;48.144;14.118;2023-03-01T05:23:11;41.17;;;22.70;;
8331;SDS011;4203;48.144;14.118;2023-03-01T05:25:38;38.07;;;22.57;;
8331;SDS011;4203;48.144;14.118;2023-03-01T05:28:06;37.70;;;22.47;;
8331;SDS011;4203;48.144;14.118;2023-03-01T05:30:36;38.93;;;22.20;;
8331;SDS011;4203;48.144;14.118;2023-03-01T05:33:06;37.33;;;22.40;;
8331;SDS011;4203;48.144;14.118;2023-03-01T05:35:38;40.63;;;23.00;;
8331;SDS011;4203;48.144;14.118;2023-03-01T05:38:06;40.03;;;24.43;;
8331;SDS011;4203;48.144;14.118;2023-03-01T05:40:34;36.63;;;21.73;;
8331;SDS011;4203;48.144;14.118;2023-03-01T05:43:01;35.33;;;22.13;;
8331;SDS011;4203;48.144;14.118;2023-03-01T05:45:30;40.83;;;23.47;;
8331;SDS011;4203;48.144;14.118;2023-03-01T05:47:58;43.50;;;24.17;;
8331;SDS011;4203;48.144;14.118;2023-03-01T05:50:28;36.90;;;22.03;;
8331;SDS011;4203;48.144;14.118;2023-03-01T05:52:57;43.70;;;23.30;;
8331;SDS011;4203;48.144;14.118;2023-03-01T05:55:27;43.23;;;23.27;;
8331;SDS011;4203;48.144;14.118;2023-03-01T05:57:57;41.57;;;23.10;;
8331;SDS011;4203;48.144;14.118;2023-03-01T06:00:25;37.80;;;22.03;;
8331;SDS011;4203;48.144;14.118;2023-03-01T06:02:53;40.07;;;23.77;;
8331;SDS011;4203;48.144;14.118;2023-03-01T06:05:20;38.87;;;23.70;;
8331;SDS011;4203;48.144;14.118;2023-03-01T06:07:49;39.70;;;22.73;;
8331;SDS011;4203;48.144;14.118;2023-03-01T06:10:18;43.20;;;25.03;;
8331;SDS011;4203;48.144;14.118;2023-03-01T06:12:48;39.33;;;23.70;;
8331;SDS011;4203;48.144;14.118;2023-03-01T06:15:15;40.67;;;23.63;;
8331;SDS011;4203;48.144;14.118;2023-03-01T06:17:44;46.20;;;24.63;;
8331;SDS011;4203;48.144;14.118;2023-03-01T06:20:12;39.97;;;22.70;;
8331;SDS011;4203;48.144;14.118;2023-03-01T06:22:41;41.20;;;23.57;;
8331;SDS011;4203;48.144;14.118;2023-03-01T06:25:10;44.17;;;25.33;;
8331;SDS011;4203;48.144;14.118;2023-03-01T06:27:38;43.60;;;23.97;;
8331;SDS011;4203;48.144;14.118;2023-03-01T06:30:06;42.80;;;24.90;;
8331;SDS011;4203;48.144;14.118;2023-03-01T06:32:35;41.90;;;24.90;;
8331;SDS011;4203;48.144;14.118;2023-03-01T06:35:03;42.27;;;25.20;;
8331;SDS011;4203;48.144;14.118;2023-03-01T06:37:30;43.10;;;25.03;;
8331;SDS011;4203;48.144;14.118;2023-03-01T06:39:58;43.20;;;23.23;;
8331;SDS011;4203;48.144;14.118;2023-03-01T06:42:26;37.00;;;22.90;;
8331;SDS011;4203;48.144;14.118;2023-03-01T06:44:53;42.60;;;24.63;;
8331;SDS011;4203;48.144;14.118;2023-03-01T06:47:20;42.87;;;24.73;;
8331;SDS011;4203;48.144;14.118;2023-03-01T06:49:47;44.07;;;23.43;;
8331;SDS011;4203;48.144;14.118;2023-03-01T06:52:15;46.13;;;24.37;;
8331;SDS011;4203;48.144;14.118;2023-03-01T06:54:42;42.70;;;24.53;;
8331;SDS011;4203;48.144;14.118;2023-03-01T06:57:09;40.33;;;24.37;;
8331;SDS011;4203;48.144;14.118;2023-03-01T06:59:37;45.40;;;25.83;;
8331;SDS011;4203;48.144;14.118;2023-03-01T07:02:04;44.80;;;24.83;;
8331;SDS011;4203;48.144;14.118;2023-03-01T07:04:32;43.13;;;25.13;;
8331;SDS011;4203;48.144;14.118;2023-03-01T07:06:59;42.50;;;26.07;;
8331;SDS011;4203;48.144;14.118;2023-03-01T07:09:26;42.67;;;24.77;;
8331;SDS011;4203;48.144;14.118;2023-03-01T07:11:53;40.90;;;24.27;;
8331;SDS011;4203;48.144;14.118;2023-03-01T07:14:20;43.17;;;24.53;;
8331;SDS011;4203;48.144;14.118;2023-03-01T07:16:51;40.43;;;23.90;;
8331;SDS011;4203;48.144;14.118;2023-03-01T07:19:18;41.20;;;24.70;;
8331;SDS011;4203;48.144;14.118;2023-03-01T07:21:45;40.73;;;24.23;;
8331;SDS011;4203;48.144;14.118;2023-03-01T07:24:12;42.70;;;25.43;;
8331;SDS011;4203;48.144;14.118;2023-03-01T07:26:39;43.70;;;24.63;;
8331;SDS011;4203;48.144;14.118;2023-03-01T07:29:07;41.57;;;23.93;;
8331;SDS011;4203;48.144;14.118;2023-03-01T07:31:36;41.07;;;24.50;;
8331;SDS011;4203;48.144;14.118;2023-03-01T07:34:04;39.37;;;24.33;;
8331;SDS011;4203;48.144;14.118;2023-03-01T07:36:31;38.93;;;24.50;;
8331;SDS011;4203;48.144;14.118;2023-03-01T07:38:59;43.47;;;23.67;;
8331;SDS011;4203;48.144;14.118;2023-03-01T07:41:28;39.67;;;23.57;;
8331;SDS011;4203;48.144;14.118;2023-03-01T07:43:55;39.47;;;24.33;;
8331;SDS011;4203;48.144;14.118;2023-03-01T07:46:22;40.87;;;24.40;;
8331;SDS011;4203;48.144;14.118;2023-03-01T07:48:49;43.07;;;24.37;;
8331;SDS011;4203;48.144;14.118;2023-03-01T07:51:18;38.93;;;23.40;;
8331;SDS011;4203;48.144;14.118;2023-03-01T07:53:45;39.47;;;24.23;;
8331;SDS011;4203;48.144;14.118;2023-03-01T07:56:13;40.93;;;23.53;;
8331;SDS011;4203;48.144;14.118;2023-03-01T07:58:43;42.97;;;23.83;;
8331;SDS011;4203;48.144;14.118;2023-03-01T08:01:12;39.43;;;24.10;;
8331;SDS011;4203;48.144;14.118;2023-03-01T08:03:40;40.23;;;24.10;;
8331;SDS011;4203;48.144;14.118;2023-03-01T08:06:09;37.77;;;23.57;;
8331;SDS011;4203;48.144;14.118;2023-03-01T08:08:39;38.20;;;23.13;;
8331;SDS011;4203;48.144;14.118;2023-03-01T08:11:06;37.83;;;23.73;;
8331;SDS011;4203;48.144;14.118;2023-03-01T08:13:36;37.93;;;23.17;;
8331;SDS011;4203;48.144;14.118;2023-03-01T08:16:03;33.33;;;21.67;;
8331;SDS011;4203;48.144;14.118;2023-03-01T08:18:32;34.00;;;22.43;;
8331;SDS011;4203;48.144;14.118;2023-03-01T08:21:03;32.80;;;22.90;;
8331;SDS011;4203;48.144;14.118;2023-03-01T08:23:32;37.77;;;21.87;;
8331;SDS011;4203;48.144;14.118;2023-03-01T08:26:05;38.93;;;21.67;;
8331;SDS011;4203;48.144;14.118;2023-03-01T08:28:33;33.90;;;22.33;;
8331;SDS011;4203;48.144;14.118;2023-03-01T08:31:01;34.27;;;21.40;;
8331;SDS011;4203;48.144;14.118;2023-03-01T08:33:28;32.93;;;21.07;;
8331;SDS011;4203;48.144;14.118;2023-03-01T08:36:02;34.37;;;22.23;;
8331;SDS011;4203;48.144;14.118;2023-03-01T08:38:31;33.63;;;21.40;;
8331;SDS011;4203;48.144;14.118;2023-03-01T08:40:59;37.80;;;21.33;;
8331;SDS011;4203;48.144;14.118;2023-03-01T08:43:28;33.30;;;20.50;;
8331;SDS011;4203;48.144;14.118;2023-03-01T08:45:56;30.43;;;20.20;;
8331;SDS011;4203;48.144;14.118;2023-03-01T08:48:23;29.87;;;19.57;;
8331;SDS011;4203;48.144;14.118;2023-03-01T08:50:51;29.33;;;20.10;;
8331;SDS011;4203;48.144;14.118;2023-03-01T08:53:18;34.27;;;20.83;;
8331;SDS011;4203;48.144;14.118;2023-03-01T08:55:45;28.30;;;19.40;;
8331;SDS011;4203;48.144;14.118;2023-03-01T08:58:12;31.73;;;20.50;;
8331;SDS011;4203;48.144;14.118;2023-03-01T09:00:41;29.27;;;19.73;;
8331;SDS011;4203;48.144;14.118;2023-03-01T09:03:08;30.57;;;19.90;;
8331;SDS011;4203;48.144;14.118;2023-03-01T09:05:35;29.83;;;19.77;;
8331;SDS011;4203;48.144;14.118;2023-03-01T09:08:02;28.50;;;19.30;;
8331;SDS011;4203;48.144;14.118;2023-03-01T09:10:30;27.77;;;19.67;;
8331;SDS011;4203;48.144;14.118;2023-03-01T09:12:57;28.87;;;19.37;;
8331;SDS011;4203;48.144;14.118;2023-03-01T09:15:24;28.43;;;20.53;;
8331;SDS011;4203;48.144;14.118;2023-03-01T09:17:53;27.27;;;18.90;;
8331;SDS011;4203;48.144;14.118;2023-03-01T09:20:20;30.83;;;19.50;;
8331;SDS011;4203;48.144;14.118;2023-03-01T09:22:47;31.80;;;18.80;;
8331;SDS011;4203;48.144;14.118;2023-03-01T09:25:14;26.77;;;18.97;;
8331;SDS011;4203;48.144;14.118;2023-03-01T09:27:42;28.20;;;19.77;;
8331;SDS011;4203;48.144;14.118;2023-03-01T09:30:09;27.17;;;19.10;;
8331;SDS011;4203;48.144;14.118;2023-03-01T09:32:37;26.87;;;18.97;;
8331;SDS011;4203;48.144;14.118;2023-03-01T09:35:09;32.50;;;20.90;;
8331;SDS011;4203;48.144;14.118;2023-03-01T09:37:37;26.33;;;18.10;;
8331;SDS011;4203;48.144;14.118;2023-03-01T09:40:05;25.73;;;18.50;;
8331;SDS011;4203;48.144;14.118;2023-03-01T09:42:45;27.30;;;18.47;;
8331;SDS011;4203;48.144;14.118;2023-03-01T09:45:19;27.07;;;17.90;;
8331;SDS011;4203;48.144;14.118;2023-03-01T09:47:53;25.97;;;18.07;;
8331;SDS011;4203;48.144;14.118;2023-03-01T09:50:23;26.33;;;18.53;;
8331;SDS011;4203;48.144;14.118;2023-03-01T09:52:54;25.00;;;18.40;;
8331;SDS011;4203;48.144;14.118;2023-03-01T09:55:29;24.50;;;17.47;;
8331;SDS011;4203;48.144;14.118;2023-03-01T09:58:00;25.43;;;18.30;;
8331;SDS011;4203;48.144;14.118;2023-03-01T10:00:43;24.70;;;17.63;;
8331;SDS011;4203;48.144;14.118;2023-03-01T10:03:15;25.73;;;18.03;;
8331;SDS011;4203;48.144;14.118;2023-03-01T10:05:47;23.43;;;16.80;;
8331;SDS011;4203;48.144;14.118;2023-03-01T10:08:24;26.43;;;17.27;;
8331;SDS011;4203;48.144;14.118;2023-03-01T10:10:58;25.73;;;17.40;;
8331;SDS011;4203;48.144;14.118;2023-03-01T10:13:27;21.03;;;16.30;;
8331;SDS011;4203;48.144;14.118;2023-03-01T10:16:01;22.90;;;17.13;;
8331;SDS011;4203;48.144;14.118;2023-03-01T10:18:36;23.27;;;16.70;;
8331;SDS011;4203;48.144;14.118;2023-03-01T10:21:09;22.97;;;18.07;;
8331;SDS011;4203;48.144;14.118;2023-03-01T10:23:42;23.80;;;17.30;;
8331;SDS011;4203;48.144;14.118;2023-03-01T10:26:14;21.40;;;15.67;;
8331;SDS011;4203;48.144;14.118;2023-03-01T10:29:01;24.87;;;18.07;;
8331;SDS011;4203;48.144;14.118;2023-03-01T10:31:34;21.93;;;16.67;;
8331;SDS011;4203;48.144;14.118;2023-03-01T10:34:08;22.70;;;17.07;;
8331;SDS011;4203;48.144;14.118;2023-03-01T10:36:41;22.87;;;16.43;;
8331;SDS011;4203;48.144;14.118;2023-03-01T10:39:15;22.48;;;16.95;;
8331;SDS011;4203;48.144;14.118;2023-03-01T10:44:42;22.43;;;15.57;;
8331;SDS011;4203;48.144;14.118;2023-03-01T10:47:16;21.07;;;15.27;;
8331;SDS011;4203;48.144;14.118;2023-03-01T10:49:56;20.10;;;15.30;;
8331;SDS011;4203;48.144;14.118;2023-03-01T10:52:30;21.90;;;16.17;;
8331;SDS011;4203;48.144;14.118;2023-03-01T10:55:00;20.60;;;15.80;;
8331;SDS011;4203;48.144;14.118;2023-03-01T10:57:32;21.25;;;16.27;;
8331;SDS011;4203;48.144;14.118;2023-03-01T11:00:14;18.98;;;14.25;;
8331;SDS011;4203;48.144;14.118;2023-03-01T11:02:47;18.20;;;14.77;;
8331;SDS011;4203;48.144;14.118;2023-03-01T11:05:20;18.75;;;14.15;;
8331;SDS011;4203;48.144;14.118;2023-03-01T11:07:53;21.57;;;14.70;;
8331;SDS011;4203;48.144;14.118;2023-03-01T11:10:22;20.57;;;15.77;;
8331;SDS011;4203;48.144;14.118;2023-03-01T11:12:51;23.07;;;14.93;;
8331;SDS011;4203;48.144;14.118;2023-03-01T11:15:24;20.13;;;15.40;;
8331;SDS011;4203;48.144;14.118;2023-03-01T11:17:53;21.20;;;15.32;;
8331;SDS011;4203;48.144;14.118;2023-03-01T11:20:25;19.02;;;14.60;;
8331;SDS011;4203;48.144;14.118;2023-03-01T11:22:58;18.67;;;14.67;;
8331;SDS011;4203;48.144;14.118;2023-03-01T11:25:30;19.48;;;15.32;;
8331;SDS011;4203;48.144;14.118;2023-03-01T11:28:03;20.33;;;14.63;;
8331;SDS011;4203;48.144;14.118;2023-03-01T11:30:33;20.23;;;15.55;;
8331;SDS011;4203;48.144;14.118;2023-03-01T11:33:11;21.45;;;15.15;;
8331;SDS011;4203;48.144;14.118;2023-03-01T11:35:46;18.97;;;14.63;;
8331;SDS011;4203;48.144;14.118;2023-03-01T11:38:23;19.75;;;15.23;;
8331;SDS011;4203;48.144;14.118;2023-03-01T11:40:53;19.35;;;15.13;;
8331;SDS011;4203;48.144;14.118;2023-03-01T11:43:29;18.90;;;13.93;;
8331;SDS011;4203;48.144;14.118;2023-03-01T11:48:58;19.23;;;13.63;;
8331;SDS011;4203;48.144;14.118;2023-03-01T11:51:38;21.13;;;15.20;;
8331;SDS011;4203;48.144;14.118;2023-03-01T11:54:20;18.77;;;14.35;;
8331;SDS011;4203;48.144;14.118;2023-03-01T11:57:00;18.37;;;13.47;;
8331;SDS011;4203;48.144;14.118;2023-03-01T11:59:50;18.67;;;13.95;;
8331;SDS011;4203;48.144;14.118;2023-03-01T12:02:50;17.17;;;13.95;;
8331;SDS011;4203;48.144;14.118;2023-03-01T12:08:50;20.17;;;14.07;;
8331;SDS011;4203;48.144;14.118;2023-03-01T12:11:34;19.48;;;13.98;;
8331;SDS011;4203;48.144;14.118;2023-03-01T12:14:21;19.00;;;14.18;;
8331;SDS011;4203;48.144;14.118;2023-03-01T12:20:09;19.63;;;14.85;;
8331;SDS011;4203;48.144;14.118;2023-03-01T12:22:54;20.38;;;14.48;;
8331;SDS011;4203;48.144;14.118;2023-03-01T12:25:45;25.20;;;14.23;;
8331;SDS011;4203;48.144;14.118;2023-03-01T12:34:31;19.05;;;13.63;;
8331;SDS011;4203;48.144;14.118;2023-03-01T12:37:11;23.20;;;14.80;;
8331;SDS011;4203;48.144;14.118;2023-03-01T12:39:51;18.80;;;14.23;;
8331;SDS011;4203;48.144;14.118;2023-03-01T12:42:29;19.98;;;14.05;;
8331;SDS011;4203;48.144;14.118;2023-03-01T12:45:14;18.33;;;13.98;;
8331;SDS011;4203;48.144;14.118;2023-03-01T12:47:58;17.45;;;13.32;;
8331;SDS011;4203;48.144;14.118;2023-03-01T12:50:39;19.58;;;13.18;;
8331;SDS011;4203;48.144;14.118;2023-03-01T12:53:14;17.58;;;13.00;;
8331;SDS011;4203;48.144;14.118;2023-03-01T12:55:48;14.70;;;12.85;;
8331;SDS011;4203;48.144;14.118;2023-03-01T12:58:19;17.10;;;12.35;;
8331;SDS011;4203;48.144;14.118;2023-03-01T13:00:57;22.85;;;11.98;;
8331;SDS011;4203;48.144;14.118;2023-03-01T13:03:48;16.67;;;12.35;;
8331;SDS011;4203;48.144;14.118;2023-03-01T13:06:32;16.63;;;12.38;;
8331;SDS011;4203;48.144;14.118;2023-03-01T13:09:07;16.30;;;12.80;;
8331;SDS011;4203;48.144;14.118;2023-03-01T13:11:43;17.33;;;12.27;;
8331;SDS011;4203;48.144;14.118;2023-03-01T13:17:32;21.75;;;12.52;;
8331;SDS011;4203;48.144;14.118;2023-03-01T13:20:11;16.45;;;12.45;;
8331;SDS011;4203;48.144;14.118;2023-03-01T13:22:43;17.15;;;12.10;;
8331;SDS011;4203;48.144;14.118;2023-03-01T13:25:13;17.25;;;12.80;;
8331;SDS011;4203;48.144;14.118;2023-03-01T13:27:44;17.05;;;12.65;;
8331;SDS011;4203;48.144;14.118;2023-03-01T13:36:06;16.58;;;12.98;;
8331;SDS011;4203;48.144;14.118;2023-03-01T13:38:36;14.90;;;11.93;;
8331;SDS011;4203;48.144;14.118;2023-03-01T13:41:06;16.10;;;12.20;;
8331;SDS011;4203;48.144;14.118;2023-03-01T13:43:34;18.58;;;12.15;;
8331;SDS011;4203;48.144;14.118;2023-03-01T13:46:07;18.25;;;12.35;;
8331;SDS011;4203;48.144;14.118;2023-03-01T13:48:39;16.92;;;13.80;;
8331;SDS011;4203;48.144;14.118;2023-03-01T13:51:07;15.02;;;12.35;;
8331;SDS011;4203;48.144;14.118;2023-03-01T13:53:37;17.42;;;13.00;;
8331;SDS011;4203;48.144;14.118;2023-03-01T13:56:09;17.17;;;13.10;;
8331;SDS011;4203;48.144;14.118;2023-03-01T13:58:46;17.88;;;13.07;;
8331;SDS011;4203;48.144;14.118;2023-03-01T14:01:22;16.77;;;13.55;;
8331;SDS011;4203;48.144;14.118;2023-03-01T14:03:53;18.40;;;13.40;;
8331;SDS011;4203;48.144;14.118;2023-03-01T14:06:21;16.75;;;13.00;;
8331;SDS011;4203;48.144;14.118;2023-03-01T14:08:51;17.13;;;13.57;;
8331;SDS011;4203;48.144;14.118;2023-03-01T14:14:34;17.48;;;14.43;;
8331;SDS011;4203;48.144;14.118;2023-03-01T14:17:15;20.73;;;13.85;;
8331;SDS011;4203;48.144;14.118;2023-03-01T14:20:02;17.15;;;13.48;;
8331;SDS011;4203;48.144;14.118;2023-03-01T14:22:37;21.67;;;13.77;;
8331;SDS011;4203;48.144;14.118;2023-03-01T14:25:17;16.83;;;13.25;;
8331;SDS011;4203;48.144;14.118;2023-03-01T14:27:57;17.65;;;13.55;;
8331;SDS011;4203;48.144;14.118;2023-03-01T14:30:31;17.08;;;13.35;;
8331;SDS011;4203;48.144;14.118;2023-03-01T14:33:03;19.45;;;14.55;;
8331;SDS011;4203;48.144;14.118;2023-03-01T14:35:33;19.45;;;14.23;;
8331;SDS011;4203;48.144;14.118;2023-03-01T14:38:02;20.30;;;15.07;;
8331;SDS011;4203;48.144;14.118;2023-03-01T14:40:30;22.40;;;14.53;;
8331;SDS011;4203;48.144;14.118;2023-03-01T14:43:00;20.00;;;14.57;;
8331;SDS011;4203;48.144;14.118;2023-03-01T14:45:34;22.43;;;14.13;;
8331;SDS011;4203;48.144;14.118;2023-03-01T14:48:02;17.77;;;14.17;;
8331;SDS011;4203;48.144;14.118;2023-03-01T14:50:34;19.63;;;14.77;;
8331;SDS011;4203;48.144;14.118;2023-03-01T14:53:06;17.90;;;13.93;;
8331;SDS011;4203;48.144;14.118;2023-03-01T14:55:44;20.80;;;14.40;;
8331;SDS011;4203;48.144;14.118;2023-03-01T14:58:13;38.23;;;16.60;;
8331;SDS011;4203;48.144;14.118;2023-03-01T15:00:46;19.77;;;14.03;;
8331;SDS011;4203;48.144;14.118;2023-03-01T15:03:18;19.77;;;14.73;;
8331;SDS011;4203;48.144;14.118;2023-03-01T15:05:52;17.00;;;13.37;;
8331;SDS011;4203;48.144;14.118;2023-03-01T15:08:20;28.57;;;14.60;;
8331;SDS011;4203;48.144;14.118;2023-03-01T15:10:57;20.53;;;14.10;;
8331;SDS011;4203;48.144;14.118;2023-03-01T15:13:29;22.43;;;13.97;;
8331;SDS011;4203;48.144;14.118;2023-03-01T15:16:02;19.60;;;13.53;;
8331;SDS011;4203;48.144;14.118;2023-03-01T15:18:32;19.50;;;14.53;;
8331;SDS011;4203;48.144;14.118;2023-03-01T15:21:09;20.30;;;14.30;;
8331;SDS011;4203;48.144;14.118;2023-03-01T15:23:41;18.57;;;13.00;;
8331;SDS011;4203;48.144;14.118;2023-03-01T15:26:21;19.17;;;12.77;;